Time;durP1;ratioP1;P1;durP2;ratioP2;P2;SDS_P1;SDS_P2;PMS_P1;PMS_P2;Temp;Humidity;BMP_temperature;BMP_pressure;BME280_temperature;BME280_humidity;BME280_pressure;Samples;Min_cycle;Max_cycle;Signal;HPM_P1;HPM_P2
2023/07/27 00:00:52;;;;;;;7.20;3.95;;;16.30;93.10;;;;;;5112400;28;20071;-74
2023/07/27 00:03:18;;;;;;;6.50;3.80;;;16.20;93.00;;;;;;5113083;28;20050;-74
2023/07/27 00:05:43;;;;;;;7.10;3.75;;;16.20;92.90;;;;;;5111399;28;20503;-74
2023/07/27 00:08:09;;;;;;;6.78;3.67;;;16.20;92.90;;;;;;5112891;28;20039;-74
2023/07/27 00:10:34;;;;;;;5.57;3.65;;;16.10;93.10;;;;;;5112741;28;20047;-74
2023/07/27 00:13:00;;;;;;;7.00;4.07;;;16.20;93.10;;;;;;5112882;28;20042;-73
2023/07/27 00:15:26;;;;;;;5.97;3.47;;;16.10;93.20;;;;;;5111024;28;20502;-73
2023/07/27 00:17:52;;;;;;;7.00;4.05;;;16.10;93.30;;;;;;5113045;28;20405;-73
2023/07/27 00:20:18;;;;;;;8.45;4.05;;;16.10;93.10;;;;;;5112801;28;20401;-74
2023/07/27 00:22:43;;;;;;;6.85;4.05;;;16.00;93.10;;;;;;5111957;28;20105;-74
2023/07/27 00:25:09;;;;;;;6.65;3.85;;;16.00;93.00;;;;;;5112382;28;20126;-73
2023/07/27 00:27:34;;;;;;;9.15;3.95;;;16.00;93.10;;;;;;5112706;28;20043;-73
2023/07/27 00:30:00;;;;;;;6.97;4.00;;;16.00;93.20;;;;;;5112250;28;20036;-74
2023/07/27 00:32:26;;;;;;;6.97;4.25;;;16.00;93.20;;;;;;5112739;28;20062;-73
2023/07/27 00:34:51;;;;;;;7.05;3.88;;;16.00;93.60;;;;;;5111270;28;20097;-73
2023/07/27 00:37:17;;;;;;;6.35;3.92;;;16.00;93.30;;;;;;5111899;28;20047;-74
2023/07/27 00:39:43;;;;;;;6.78;4.10;;;16.00;93.30;;;;;;5112026;28;20047;-74
2023/07/27 00:42:09;;;;;;;6.82;4.00;;;15.90;93.30;;;;;;5111055;28;20281;-72
2023/07/27 00:44:34;;;;;;;6.57;3.63;;;15.90;93.20;;;;;;5112402;28;20111;-73
2023/07/27 00:47:00;;;;;;;7.40;4.10;;;15.90;93.10;;;;;;5112116;28;20039;-72
2023/07/27 00:49:26;;;;;;;6.88;3.80;;;15.80;92.90;;;;;;5112450;28;20477;-72
2023/07/27 00:51:52;;;;;;;6.07;3.50;;;15.80;92.90;;;;;;5111319;28;20104;-72
2023/07/27 00:54:18;;;;;;;7.50;4.13;;;15.80;92.80;;;;;;5111289;28;20094;-73
2023/07/27 00:56:44;;;;;;;8.52;4.25;;;15.70;92.60;;;;;;5107252;28;20036;-73
2023/07/27 00:59:10;;;;;;;6.38;3.38;;;15.70;92.90;;;;;;5106238;28;20047;-73
2023/07/27 01:01:36;;;;;;;6.75;3.88;;;15.70;92.70;;;;;;5101911;28;20157;-73
2023/07/27 01:04:02;;;;;;;6.82;4.15;;;15.70;92.80;;;;;;5090763;28;20078;-73
2023/07/27 01:06:29;;;;;;;6.93;4.10;;;15.60;93.00;;;;;;5097950;28;20118;-72
2023/07/27 01:08:55;;;;;;;6.82;3.88;;;15.60;92.80;;;;;;5113840;28;20058;-72
2023/07/27 01:11:53;;;;;;;6.78;3.70;;;15.60;92.80;;;;;;5115079;28;20047;-73
2023/07/27 01:14:49;;;;;;;7.40;3.53;;;15.60;92.60;;;;;;5106449;28;20044;-73
2023/07/27 01:17:30;;;;;;;6.22;3.60;;;15.50;92.50;;;;;;5099468;28;20043;-72
2023/07/27 01:20:04;;;;;;;5.57;3.42;;;15.50;92.60;;;;;;5099227;28;20494;-73
2023/07/27 01:22:32;;;;;;;;;;;15.50;92.60;;;;;;5104556;28;20079;-73
2023/07/27 01:25:27;;;;;;;6.95;3.72;;;15.40;92.20;;;;;;5096659;28;19981;-73
2023/07/27 01:28:19;;;;;;;6.78;3.90;;;15.40;92.60;;;;;;5077420;28;20142;-73
2023/07/27 01:30:49;;;;;;;8.40;3.80;;;15.40;92.60;;;;;;5093448;28;20036;-73
2023/07/27 01:33:22;;;;;;;6.22;3.58;;;15.40;92.70;;;;;;5113813;28;20048;-73
2023/07/27 01:36:01;;;;;;;6.47;3.40;;;15.40;92.60;;;;;;5095300;28;20087;-73
2023/07/27 01:38:33;;;;;;;6.57;3.78;;;15.40;93.00;;;;;;5111046;28;20040;-73
2023/07/27 01:41:00;;;;;;;6.15;3.65;;;15.40;93.30;;;;;;5110710;28;20150;-73
2023/07/27 01:43:27;;;;;;;8.05;3.58;;;15.40;93.20;;;;;;5105292;28;20097;-73
2023/07/27 01:45:54;;;;;;;6.32;3.50;;;15.40;93.30;;;;;;5095246;28;20051;-73
2023/07/27 01:48:21;;;;;;;8.13;3.70;;;15.40;93.20;;;;;;5107383;28;20047;-73
2023/07/27 01:50:49;;;;;;;6.30;3.60;;;15.40;93.40;;;;;;5094009;28;20389;-73
2023/07/27 01:53:17;;;;;;;5.90;3.30;;;15.40;93.40;;;;;;5106227;28;20504;-73
2023/07/27 01:55:43;;;;;;;5.75;3.58;;;15.40;93.50;;;;;;5114105;28;20040;-73
2023/07/27 01:58:10;;;;;;;6.30;3.40;;;15.40;93.40;;;;;;5112541;28;20039;-73
2023/07/27 02:00:36;;;;;;;6.40;3.58;;;15.40;93.40;;;;;;5107150;28;20044;-73
2023/07/27 02:03:01;;;;;;;6.05;3.58;;;15.40;93.30;;;;;;5113788;28;20039;-73
2023/07/27 02:05:27;;;;;;;6.50;3.92;;;15.40;93.20;;;;;;5114940;28;20039;-73
2023/07/27 02:07:53;;;;;;;6.13;3.50;;;15.40;93.40;;;;;;5114459;28;20043;-73
2023/07/27 02:10:21;;;;;;;6.55;3.60;;;15.40;93.50;;;;;;5114257;28;20043;-73
2023/07/27 02:13:01;;;;;;;7.60;4.07;;;15.40;93.70;;;;;;5113921;28;20128;-73
2023/07/27 02:15:32;;;;;;;6.38;3.78;;;15.40;93.50;;;;;;5113947;28;20039;-73
2023/07/27 02:18:10;;;;;;;7.53;3.30;;;15.40;93.60;;;;;;5114902;28;20509;-73
2023/07/27 02:20:37;;;;;;;6.30;3.70;;;15.40;93.60;;;;;;5114710;28;20051;-73
2023/07/27 02:23:05;;;;;;;6.95;3.42;;;15.40;93.40;;;;;;5114795;28;20510;-73
2023/07/27 02:25:31;;;;;;;6.53;3.92;;;15.40;93.30;;;;;;5113874;28;20046;-73
2023/07/27 02:27:57;;;;;;;7.35;3.70;;;15.40;93.10;;;;;;5114970;28;20047;-73
2023/07/27 02:30:22;;;;;;;6.53;3.60;;;15.40;93.00;;;;;;5113990;28;20576;-73
2023/07/27 02:32:48;;;;;;;6.80;3.75;;;15.40;93.30;;;;;;5114592;28;20048;-73
2023/07/27 02:35:14;;;;;;;6.28;3.50;;;15.40;93.50;;;;;;5114258;28;20058;-73
2023/07/27 02:37:40;;;;;;;7.07;3.85;;;15.40;93.50;;;;;;5114357;28;20582;-73
2023/07/27 02:40:06;;;;;;;6.95;4.15;;;15.40;93.60;;;;;;5113852;28;20043;-73
2023/07/27 02:42:31;;;;;;;5.78;3.65;;;15.40;93.60;;;;;;5114468;28;20047;-73
2023/07/27 02:44:57;;;;;;;6.13;3.85;;;15.40;93.60;;;;;;5113850;28;20512;-73
2023/07/27 02:47:23;;;;;;;5.95;3.55;;;15.40;93.40;;;;;;5114204;28;20051;-73
2023/07/27 02:49:48;;;;;;;6.82;3.42;;;15.40;93.40;;;;;;5114246;28;20460;-72
2023/07/27 02:52:14;;;;;;;6.43;3.65;;;15.40;93.40;;;;;;5114280;28;20050;-73
2023/07/27 02:54:39;;;;;;;6.53;3.80;;;15.40;93.50;;;;;;5113806;28;20496;-73
2023/07/27 02:57:05;;;;;;;6.30;3.50;;;15.40;93.30;;;;;;5113830;28;20044;-73
2023/07/27 02:59:31;;;;;;;5.90;3.28;;;15.30;93.20;;;;;;5113791;28;20500;-72
2023/07/27 03:01:56;;;;;;;6.55;3.50;;;15.30;93.30;;;;;;5113376;28;20406;-73
2023/07/27 03:04:22;;;;;;;6.63;4.07;;;15.30;93.30;;;;;;5113600;28;20052;-73
2023/07/27 03:06:48;;;;;;;6.88;3.65;;;15.30;93.30;;;;;;5113688;28;20043;-72
2023/07/27 03:09:14;;;;;;;6.18;3.88;;;15.30;93.70;;;;;;5113923;28;20121;-73
2023/07/27 03:11:40;;;;;;;7.15;3.95;;;15.30;93.30;;;;;;5113539;28;20435;-72
2023/07/27 03:14:05;;;;;;;6.47;3.95;;;15.30;93.20;;;;;;5113371;28;20039;-73
2023/07/27 03:16:31;;;;;;;7.40;4.35;;;15.30;93.30;;;;;;5113018;28;20478;-73
2023/07/27 03:18:57;;;;;;;7.97;4.80;;;15.30;93.30;;;;;;5113813;28;20043;-73
2023/07/27 03:21:22;;;;;;;6.25;3.78;;;15.20;93.40;;;;;;5113671;27;20397;-73
2023/07/27 03:23:49;;;;;;;10.23;4.65;;;15.20;93.40;;;;;;5113103;28;20047;-73
2023/07/27 03:26:15;;;;;;;8.65;5.18;;;15.20;93.60;;;;;;5113067;28;20047;-73
2023/07/27 03:28:41;;;;;;;7.05;4.50;;;15.20;94.10;;;;;;5113186;28;20047;-73
2023/07/27 03:31:22;;;;;;;7.78;4.57;;;15.20;93.80;;;;;;5113384;28;20044;-72
2023/07/27 03:33:49;;;;;;;7.75;4.95;;;15.20;93.80;;;;;;5113657;28;20043;-73
2023/07/27 03:36:16;;;;;;;8.07;4.60;;;15.20;93.90;;;;;;5111355;28;20135;-72
2023/07/27 03:38:42;;;;;;;7.85;4.78;;;15.20;93.70;;;;;;5113544;28;20040;-73
2023/07/27 03:41:08;;;;;;;8.80;4.90;;;15.20;93.70;;;;;;5113367;28;20048;-72
2023/07/27 03:43:33;;;;;;;8.68;5.35;;;15.20;93.70;;;;;;5113085;28;20504;-72
2023/07/27 03:45:59;;;;;;;7.05;4.10;;;15.20;93.90;;;;;;5112743;28;20074;-72
2023/07/27 03:48:25;;;;;;;8.02;5.03;;;15.20;93.80;;;;;;5113218;28;20054;-72
2023/07/27 03:50:52;;;;;;;7.60;4.85;;;15.10;94.00;;;;;;5111336;28;20066;-72
2023/07/27 03:53:17;;;;;;;10.07;4.97;;;15.10;94.10;;;;;;5113713;28;20052;-72
2023/07/27 03:55:43;;;;;;;7.38;4.57;;;15.10;94.20;;;;;;5113217;28;20397;-72
2023/07/27 03:58:09;;;;;;;9.05;5.57;;;15.10;94.10;;;;;;5113221;28;20456;-72
2023/07/27 04:00:34;;;;;;;9.23;5.32;;;15.10;94.50;;;;;;5113028;28;20050;-72
2023/07/27 04:03:00;;;;;;;8.55;5.38;;;15.20;94.70;;;;;;5113350;28;20051;-72
2023/07/27 04:05:25;;;;;;;7.65;4.90;;;15.10;94.70;;;;;;5112411;28;20058;-72
2023/07/27 04:07:52;;;;;;;8.68;5.18;;;15.10;94.70;;;;;;5113535;28;20044;-72
2023/07/27 04:10:18;;;;;;;8.02;5.15;;;15.10;94.60;;;;;;5112454;28;20398;-73
2023/07/27 04:12:44;;;;;;;7.68;4.53;;;15.10;94.70;;;;;;5113368;28;20039;-72
2023/07/27 04:15:10;;;;;;;8.35;4.88;;;15.10;94.80;;;;;;5112314;28;20054;-73
2023/07/27 04:17:35;;;;;;;7.75;5.10;;;15.10;94.80;;;;;;5113188;28;20040;-72
2023/07/27 04:20:01;;;;;;;7.72;4.75;;;15.00;94.70;;;;;;5111608;28;20040;-73
2023/07/27 04:22:27;;;;;;;8.23;5.05;;;15.10;94.80;;;;;;5111959;28;20168;-72
2023/07/27 04:24:53;;;;;;;7.18;4.65;;;15.00;94.70;;;;;;5112144;28;20397;-72
2023/07/27 04:27:18;;;;;;;9.18;4.70;;;15.10;94.70;;;;;;5112811;28;20082;-72
2023/07/27 04:29:44;;;;;;;9.40;5.95;;;15.00;94.60;;;;;;5112049;28;20378;-72
2023/07/27 04:32:09;;;;;;;8.27;4.72;;;15.10;94.90;;;;;;5112764;28;20435;-72
2023/07/27 04:34:35;;;;;;;7.80;5.20;;;15.00;94.70;;;;;;5113506;28;20056;-72
2023/07/27 04:37:01;;;;;;;10.15;4.90;;;15.00;94.70;;;;;;5116696;28;20174;-73
2023/07/27 04:39:27;;;;;;;7.97;4.72;;;15.00;94.80;;;;;;5115842;28;20048;-72
2023/07/27 04:41:52;;;;;;;7.13;4.50;;;15.00;94.60;;;;;;5116446;28;20115;-72
2023/07/27 04:44:18;;;;;;;8.10;4.90;;;15.00;94.60;;;;;;5116750;28;20131;-72
2023/07/27 04:46:43;;;;;;;7.85;4.93;;;15.00;94.60;;;;;;5116129;28;20470;-72
2023/07/27 04:49:09;;;;;;;8.85;5.03;;;15.00;94.70;;;;;;5116352;28;20055;-72
2023/07/27 04:51:35;;;;;;;7.38;4.47;;;15.00;94.80;;;;;;5114291;28;20055;-73
2023/07/27 04:54:02;;;;;;;7.90;4.63;;;15.00;94.60;;;;;;5095986;28;20163;-72
2023/07/27 04:56:28;;;;;;;7.55;4.45;;;15.00;94.60;;;;;;5115385;28;20043;-72
2023/07/27 04:58:54;;;;;;;7.43;4.57;;;15.00;94.50;;;;;;5116138;28;20050;-72
2023/07/27 05:01:20;;;;;;;7.20;4.72;;;15.00;94.40;;;;;;5115635;27;20102;-72
2023/07/27 05:03:45;;;;;;;7.63;4.75;;;15.00;94.40;;;;;;5114784;28;20071;-72
2023/07/27 05:06:11;;;;;;;7.78;5.00;;;15.00;94.40;;;;;;5116055;28;20397;-73
2023/07/27 05:08:37;;;;;;;7.07;4.65;;;15.00;94.40;;;;;;5116483;28;20105;-72
2023/07/27 05:11:05;;;;;;;7.38;4.60;;;15.00;94.30;;;;;;5115566;28;20043;-72
2023/07/27 05:13:31;;;;;;;6.28;4.05;;;15.00;94.40;;;;;;5114328;28;20039;-72
2023/07/27 05:15:58;;;;;;;7.57;4.03;;;15.00;94.30;;;;;;5114398;28;20104;-72
2023/07/27 05:18:24;;;;;;;7.05;4.32;;;15.00;94.30;;;;;;5116059;28;20131;-72
2023/07/27 05:20:49;;;;;;;9.68;5.28;;;15.00;94.20;;;;;;5115626;28;20130;-73
2023/07/27 05:23:15;;;;;;;7.10;4.38;;;15.00;94.60;;;;;;5114124;28;20048;-72
2023/07/27 05:25:40;;;;;;;8.57;5.10;;;15.00;94.50;;;;;;5115711;28;20058;-72
2023/07/27 05:28:06;;;;;;;7.97;5.25;;;15.00;94.60;;;;;;5115370;28;20035;-72
2023/07/27 05:30:32;;;;;;;7.22;4.47;;;15.00;95.00;;;;;;5115696;28;20081;-72
2023/07/27 05:32:57;;;;;;;6.35;4.25;;;15.00;94.90;;;;;;5115520;28;20124;-73
2023/07/27 05:35:23;;;;;;;6.18;3.97;;;15.00;94.60;;;;;;5115970;28;20051;-70
2023/07/27 05:37:49;;;;;;;6.28;4.05;;;15.00;94.50;;;;;;5115410;28;20086;-71
2023/07/27 05:40:15;;;;;;;8.25;4.20;;;15.00;94.40;;;;;;5114012;28;20165;-70
2023/07/27 05:42:41;;;;;;;7.35;4.50;;;15.00;94.50;;;;;;5111338;28;20077;-72
2023/07/27 05:45:07;;;;;;;7.47;5.20;;;15.00;94.60;;;;;;5110530;28;20055;-73
2023/07/27 05:47:33;;;;;;;7.40;4.65;;;15.00;95.40;;;;;;5109099;27;20047;-72
2023/07/27 05:49:58;;;;;;;7.50;5.07;;;15.00;95.10;;;;;;5115570;28;20048;-72
2023/07/27 05:52:25;;;;;;;6.53;4.03;;;15.10;95.30;;;;;;5115591;28;20101;-72
2023/07/27 05:54:51;;;;;;;7.60;4.68;;;15.10;95.30;;;;;;5114842;28;20138;-72
2023/07/27 05:57:16;;;;;;;8.38;4.10;;;15.10;95.30;;;;;;5115298;28;20472;-71
2023/07/27 05:59:42;;;;;;;8.27;4.97;;;15.10;95.40;;;;;;5114658;28;20042;-71
2023/07/27 06:02:08;;;;;;;7.78;4.80;;;15.10;95.90;;;;;;5114960;28;20054;-71
2023/07/27 06:04:34;;;;;;;7.35;4.43;;;15.10;96.10;;;;;;5114671;28;20088;-71
2023/07/27 06:06:59;;;;;;;7.28;4.15;;;15.20;96.20;;;;;;5112901;28;20074;-70
2023/07/27 06:09:25;;;;;;;7.32;4.18;;;15.10;96.10;;;;;;5114725;28;20481;-71
2023/07/27 06:11:51;;;;;;;6.20;3.75;;;15.10;96.00;;;;;;5114305;28;20035;-70
2023/07/27 06:14:17;;;;;;;6.88;4.25;;;15.10;95.90;;;;;;5115142;28;20386;-71
2023/07/27 06:16:43;;;;;;;6.88;4.03;;;15.20;96.20;;;;;;5114857;28;20043;-71
2023/07/27 06:19:09;;;;;;;6.93;4.30;;;15.20;96.30;;;;;;5113892;28;20426;-71
2023/07/27 06:21:34;;;;;;;7.22;3.90;;;15.20;96.40;;;;;;5114428;28;20051;-71
2023/07/27 06:24:00;;;;;;;7.85;3.92;;;15.20;96.40;;;;;;5114902;28;20095;-71
2023/07/27 06:26:26;;;;;;;6.47;4.03;;;15.20;96.30;;;;;;5114818;28;20039;-71
2023/07/27 06:28:52;;;;;;;7.22;4.00;;;15.20;96.30;;;;;;5114330;28;20382;-71
2023/07/27 06:31:17;;;;;;;6.70;4.22;;;15.20;96.20;;;;;;5110305;28;20039;-71
2023/07/27 06:33:43;;;;;;;7.43;4.57;;;15.30;96.70;;;;;;5114073;28;20095;-71
2023/07/27 06:36:11;;;;;;;8.25;4.28;;;15.30;97.10;;;;;;5112133;28;20079;-71
2023/07/27 06:38:38;;;;;;;6.57;3.63;;;15.30;96.90;;;;;;5113810;28;20043;-70
2023/07/27 06:41:05;;;;;;;6.35;3.50;;;15.30;97.00;;;;;;5113495;28;20063;-71
2023/07/27 06:43:30;;;;;;;7.10;4.10;;;15.30;96.80;;;;;;5113867;28;20077;-71
2023/07/27 06:45:59;;;;;;;6.57;4.00;;;15.30;97.00;;;;;;5113845;28;20205;-70
2023/07/27 06:48:25;;;;;;;6.65;4.28;;;15.40;97.10;;;;;;5113081;28;20054;-71
2023/07/27 06:50:51;;;;;;;6.90;3.70;;;15.40;97.20;;;;;;5114320;28;20039;-72
2023/07/27 06:53:16;;;;;;;6.70;4.32;;;15.40;97.40;;;;;;5113730;28;20070;-72
2023/07/27 06:55:42;;;;;;;5.68;3.70;;;15.40;97.80;;;;;;5114041;28;20053;-72
2023/07/27 06:58:08;;;;;;;5.57;3.25;;;15.40;97.60;;;;;;5112451;28;20044;-72
2023/07/27 07:00:33;;;;;;;5.50;3.28;;;15.40;97.30;;;;;;5113122;28;20054;-73
2023/07/27 07:03:05;;;;;;;8.30;4.60;;;15.50;97.00;;;;;;5113628;28;20092;-72
2023/07/27 07:05:31;;;;;;;6.45;3.70;;;15.50;97.70;;;;;;5093787;28;20036;-72
2023/07/27 07:07:56;;;;;;;6.78;3.80;;;15.50;97.50;;;;;;5106953;28;20093;-72
2023/07/27 07:10:22;;;;;;;6.28;3.90;;;15.50;97.10;;;;;;5112983;28;20135;-73
2023/07/27 07:12:47;;;;;;;6.20;3.70;;;15.50;97.40;;;;;;5113751;28;20070;-72
2023/07/27 07:15:13;;;;;;;6.75;3.85;;;15.60;97.70;;;;;;5113574;28;20067;-70
2023/07/27 07:17:39;;;;;;;6.63;3.80;;;15.60;97.80;;;;;;5114009;28;20397;-72
2023/07/27 07:20:08;;;;;;;7.47;4.10;;;15.60;97.70;;;;;;5112424;28;20050;-72
2023/07/27 07:22:37;;;;;;;6.38;4.03;;;15.70;98.00;;;;;;5112928;28;20048;-72
2023/07/27 07:25:11;;;;;;;7.15;3.53;;;15.70;98.20;;;;;;5112744;28;20044;-72
2023/07/27 07:27:36;;;;;;;7.45;4.25;;;15.70;97.90;;;;;;5107333;27;20047;-72
2023/07/27 07:30:05;;;;;;;6.97;3.80;;;15.70;98.20;;;;;;5111632;28;20047;-72
2023/07/27 07:32:33;;;;;;;7.00;3.72;;;15.70;98.10;;;;;;5109040;28;20040;-72
2023/07/27 07:34:59;;;;;;;6.70;4.38;;;15.70;98.10;;;;;;5113034;28;20055;-72
2023/07/27 07:37:24;;;;;;;6.68;3.65;;;15.70;98.40;;;;;;5113402;28;20055;-72
2023/07/27 07:39:50;;;;;;;5.97;3.85;;;15.70;97.90;;;;;;5113088;28;20054;-72
2023/07/27 07:42:16;;;;;;;6.32;3.58;;;15.70;98.10;;;;;;5113374;28;20504;-72
2023/07/27 07:44:41;;;;;;;5.63;3.55;;;15.80;98.10;;;;;;5111806;28;20082;-73
2023/07/27 07:47:07;;;;;;;6.35;3.70;;;15.80;98.20;;;;;;5113456;28;20040;-74
2023/07/27 07:49:32;;;;;;;5.15;3.35;;;15.80;97.80;;;;;;5112305;28;20056;-74
2023/07/27 07:51:58;;;;;;;6.63;4.30;;;15.80;97.80;;;;;;5112144;28;20067;-74
2023/07/27 07:54:24;;;;;;;5.95;4.13;;;15.80;98.10;;;;;;5094814;28;20085;-74
2023/07/27 07:56:49;;;;;;;6.07;3.40;;;15.80;98.60;;;;;;5112662;28;20048;-73
2023/07/27 07:59:15;;;;;;;5.75;3.80;;;15.80;98.50;;;;;;5113551;28;20397;-73
2023/07/27 08:01:41;;;;;;;6.55;4.22;;;15.90;98.70;;;;;;5112494;28;20131;-73
2023/07/27 08:04:07;;;;;;;8.43;4.10;;;15.80;98.80;;;;;;5113094;28;20052;-73
2023/07/27 08:06:33;;;;;;;5.50;3.67;;;15.90;99.00;;;;;;5112360;28;20501;-73
2023/07/27 08:08:59;;;;;;;6.00;3.85;;;15.90;99.20;;;;;;5115131;28;20082;-73
2023/07/27 08:11:25;;;;;;;5.70;3.67;;;15.90;99.20;;;;;;5114863;28;20393;-74
2023/07/27 08:13:52;;;;;;;5.13;3.30;;;15.90;99.00;;;;;;5116683;28;20450;-74
2023/07/27 08:16:17;;;;;;;6.18;2.88;;;16.00;98.80;;;;;;5116624;28;20048;-74
2023/07/27 08:18:44;;;;;;;4.95;3.10;;;16.00;98.50;;;;;;5117149;28;20158;-74
2023/07/27 08:21:10;;;;;;;5.60;3.50;;;16.00;98.40;;;;;;5113980;28;20032;-74
2023/07/27 08:23:35;;;;;;;5.00;3.40;;;16.00;98.80;;;;;;5110098;28;20051;-73
2023/07/27 08:26:03;;;;;;;5.85;3.20;;;16.00;98.90;;;;;;5116091;28;20051;-73
2023/07/27 08:28:28;;;;;;;5.45;3.30;;;16.00;99.00;;;;;;5117298;28;20064;-73
2023/07/27 08:30:54;;;;;;;5.55;3.50;;;16.00;99.40;;;;;;5115514;28;20036;-74
2023/07/27 08:33:20;;;;;;;5.47;3.17;;;16.00;99.60;;;;;;5116695;28;20047;-73
2023/07/27 08:35:46;;;;;;;4.90;3.28;;;16.10;99.70;;;;;;5114945;28;20127;-73
2023/07/27 08:38:12;;;;;;;4.72;2.95;;;16.10;99.70;;;;;;5116808;28;20386;-73
2023/07/27 08:40:38;;;;;;;5.18;2.95;;;16.10;99.30;;;;;;5116098;28;20047;-73
2023/07/27 08:43:05;;;;;;;4.72;2.92;;;16.10;99.40;;;;;;5116975;28;20040;-73
2023/07/27 08:45:31;;;;;;;4.82;2.75;;;16.10;99.20;;;;;;5115834;28;20100;-73
2023/07/27 08:47:58;;;;;;;5.55;2.90;;;16.10;98.90;;;;;;5116615;28;20050;-73
2023/07/27 08:50:23;;;;;;;4.40;2.58;;;16.10;99.30;;;;;;5113563;28;20057;-73
2023/07/27 08:52:49;;;;;;;4.03;2.50;;;16.20;99.80;;;;;;5116331;28;20297;-73
2023/07/27 08:55:15;;;;;;;3.55;2.17;;;16.20;99.60;;;;;;5116188;28;20047;-74
2023/07/27 08:57:41;;;;;;;5.38;2.40;;;16.20;99.50;;;;;;5116054;28;20086;-73
2023/07/27 09:00:09;;;;;;;4.20;2.42;;;16.20;99.70;;;;;;5115907;28;20035;-74
2023/07/27 09:02:35;;;;;;;3.85;2.00;;;16.20;99.50;;;;;;5115412;28;20394;-73
2023/07/27 09:05:01;;;;;;;3.70;2.20;;;16.20;99.30;;;;;;5115230;28;20053;-74
2023/07/27 09:07:27;;;;;;;3.95;2.22;;;16.30;99.30;;;;;;5095807;28;20467;-74
2023/07/27 09:09:53;;;;;;;3.88;2.25;;;16.30;99.20;;;;;;5105807;28;20512;-73
2023/07/27 09:12:24;;;;;;;4.68;2.50;;;16.30;99.90;;;;;;5115138;28;20434;-74
2023/07/27 09:14:49;;;;;;;4.05;2.22;;;16.30;99.70;;;;;;5115943;28;20397;-74
2023/07/27 09:17:16;;;;;;;4.97;2.20;;;16.40;99.90;;;;;;5115511;28;20031;-74
2023/07/27 09:19:43;;;;;;;4.22;2.40;;;16.40;99.90;;;;;;5115365;28;20050;-74
2023/07/27 09:22:11;;;;;;;3.85;2.15;;;16.40;99.90;;;;;;5115026;28;20409;-73
2023/07/27 09:24:37;;;;;;;3.38;1.95;;;16.50;99.90;;;;;;5095340;28;20040;-74
2023/07/27 09:27:10;;;;;;;3.58;2.10;;;16.50;99.90;;;;;;5095253;28;20120;-74
2023/07/27 09:29:35;;;;;;;3.58;2.10;;;16.50;99.90;;;;;;5095710;28;20177;-74
2023/07/27 09:32:01;;;;;;;3.20;1.98;;;16.50;99.90;;;;;;5102530;28;20501;-73
2023/07/27 09:34:28;;;;;;;3.55;2.10;;;16.60;99.90;;;;;;5100144;28;20064;-73
2023/07/27 09:37:02;;;;;;;3.53;2.00;;;16.60;99.90;;;;;;5115686;28;20052;-74
2023/07/27 09:39:29;;;;;;;5.00;2.03;;;16.60;99.90;;;;;;5105158;28;20039;-74
2023/07/27 09:41:58;;;;;;;3.00;1.90;;;16.60;99.90;;;;;;5106423;28;20041;-74
2023/07/27 09:44:24;;;;;;;4.07;2.17;;;16.70;99.90;;;;;;5109146;28;20481;-74
2023/07/27 09:46:50;;;;;;;4.55;2.10;;;16.70;99.90;;;;;;5102630;28;20093;-74
2023/07/27 09:49:20;;;;;;;3.22;2.10;;;16.70;99.90;;;;;;5115366;28;20039;-73
2023/07/27 09:51:48;;;;;;;3.65;2.05;;;16.70;99.90;;;;;;5101275;28;20099;-74
2023/07/27 09:54:19;;;;;;;3.70;2.20;;;16.80;99.90;;;;;;5115406;27;20043;-74
2023/07/27 09:56:45;;;;;;;4.60;2.28;;;16.80;99.90;;;;;;5106034;28;20040;-74
2023/07/27 09:59:12;;;;;;;3.75;2.00;;;16.80;99.90;;;;;;5094834;28;20044;-73
2023/07/27 10:01:38;;;;;;;3.97;2.33;;;16.80;99.90;;;;;;5109199;28;20397;-74
2023/07/27 10:04:04;;;;;;;4.90;2.70;;;16.80;99.90;;;;;;5103374;28;20039;-74
2023/07/27 10:06:30;;;;;;;3.58;2.10;;;16.80;99.90;;;;;;5114040;28;20523;-74
2023/07/27 10:08:56;;;;;;;4.70;1.88;;;16.90;99.90;;;;;;5110987;28;20040;-74
2023/07/27 10:11:30;;;;;;;2.97;1.77;;;16.90;99.90;;;;;;5114543;28;20067;-74
2023/07/27 10:13:57;;;;;;;3.10;2.00;;;16.80;99.90;;;;;;5106577;28;20044;-74
2023/07/27 10:16:30;;;;;;;4.70;2.10;;;16.90;99.90;;;;;;5098788;28;20094;-75
2023/07/27 10:18:56;;;;;;;2.92;1.70;;;16.90;99.90;;;;;;5114821;28;20047;-74
2023/07/27 10:21:21;;;;;;;3.95;1.90;;;16.90;99.90;;;;;;5115041;28;20040;-74
2023/07/27 10:23:59;;;;;;;3.08;1.80;;;17.00;99.90;;;;;;5115224;28;20047;-74
2023/07/27 10:26:44;;;;;;;2.50;1.50;;;17.00;99.90;;;;;;5115228;28;20148;-74
2023/07/27 10:29:24;;;;;;;2.65;1.48;;;17.00;99.90;;;;;;5114955;28;20110;-73
2023/07/27 10:32:01;;;;;;;2.78;1.92;;;17.00;99.90;;;;;;5115047;28;20054;-74
2023/07/27 10:34:28;;;;;;;3.65;2.10;;;17.00;99.90;;;;;;5114790;28;20130;-74
2023/07/27 10:36:58;;;;;;;3.30;2.13;;;17.10;99.90;;;;;;5114849;28;20051;-73
2023/07/27 10:39:32;;;;;;;4.63;2.17;;;17.10;99.90;;;;;;5114517;28;20573;-71
2023/07/27 10:42:00;;;;;;;3.50;1.90;;;17.20;99.90;;;;;;5113865;28;20046;-72
2023/07/27 10:44:47;;;;;;;3.28;2.28;;;17.20;99.90;;;;;;5113996;28;20051;-71
2023/07/27 10:47:19;;;;;;;3.58;2.28;;;17.20;99.90;;;;;;5099216;28;20473;-71
2023/07/27 10:49:48;;;;;;;3.10;2.13;;;17.20;99.90;;;;;;5113273;28;20047;-74
2023/07/27 10:52:22;;;;;;;3.40;2.00;;;17.30;99.90;;;;;;5113792;28;20444;-73
2023/07/27 10:54:49;;;;;;;4.65;2.38;;;17.30;99.90;;;;;;5114102;28;20386;-73
2023/07/27 10:57:16;;;;;;;2.65;1.50;;;17.30;99.90;;;;;;5113559;28;20185;-73
2023/07/27 10:59:44;;;;;;;3.85;1.85;;;17.30;99.90;;;;;;5113963;28;20060;-74
2023/07/27 11:02:15;;;;;;;5.90;2.70;;;17.40;99.90;;;;;;5112605;28;20052;-74
2023/07/27 11:04:41;;;;;;;4.25;2.67;;;17.40;99.90;;;;;;5112465;28;20054;-73
2023/07/27 11:07:11;;;;;;;4.00;2.42;;;17.40;99.90;;;;;;5114155;28;20054;-74
2023/07/27 11:09:37;;;;;;;4.55;3.10;;;17.50;99.90;;;;;;5113740;28;20043;-73
2023/07/27 11:12:04;;;;;;;6.03;2.47;;;17.50;99.90;;;;;;5113189;28;20392;-74
2023/07/27 11:14:30;;;;;;;4.03;2.33;;;17.50;99.90;;;;;;5112556;28;20031;-74
2023/07/27 11:16:56;;;;;;;3.30;1.90;;;17.60;99.90;;;;;;5112584;28;20493;-74
2023/07/27 11:19:23;;;;;;;5.25;2.75;;;17.60;99.90;;;;;;5112827;28;20035;-73
2023/07/27 11:21:50;;;;;;;4.55;3.30;;;17.60;99.90;;;;;;5111200;28;20108;-73
2023/07/27 11:24:17;;;;;;;6.65;2.15;;;17.70;99.90;;;;;;5112777;28;20086;-73
2023/07/27 11:26:43;;;;;;;3.53;2.35;;;17.70;99.90;;;;;;5113307;28;20077;-73
2023/07/27 11:29:09;;;;;;;4.82;2.67;;;17.70;99.90;;;;;;5113103;28;20431;-73
2023/07/27 11:31:35;;;;;;;3.83;2.70;;;17.80;99.90;;;;;;5112938;28;20078;-73
2023/07/27 11:34:02;;;;;;;4.05;2.92;;;17.80;99.90;;;;;;5105223;28;20101;-74
2023/07/27 11:36:32;;;;;;;3.47;2.10;;;17.80;99.90;;;;;;5111956;28;20050;-74
2023/07/27 11:38:59;;;;;;;3.63;2.63;;;17.90;99.90;;;;;;5097964;28;20056;-74
2023/07/27 11:41:31;;;;;;;4.07;2.50;;;17.90;99.90;;;;;;5100400;28;20058;-73
2023/07/27 11:43:58;;;;;;;6.10;3.22;;;17.90;99.90;;;;;;5111457;28;20032;-73
2023/07/27 11:46:26;;;;;;;3.92;2.50;;;18.00;99.90;;;;;;5112028;28;20036;-73
2023/07/27 11:48:52;;;;;;;4.07;2.58;;;18.00;99.90;;;;;;5107821;28;20482;-73
2023/07/27 11:51:18;;;;;;;4.93;3.60;;;18.00;99.90;;;;;;5113447;28;20056;-73
2023/07/27 11:53:45;;;;;;;4.40;3.33;;;18.10;99.90;;;;;;5113074;28;20044;-73
2023/07/27 11:56:11;;;;;;;5.35;2.97;;;18.10;99.90;;;;;;5112908;28;20094;-74
2023/07/27 11:58:37;;;;;;;4.68;3.03;;;18.10;99.90;;;;;;5111371;28;20472;-74
2023/07/27 12:01:03;;;;;;;5.10;3.65;;;18.20;99.90;;;;;;5112835;28;20090;-74
2023/07/27 12:03:34;;;;;;;5.30;3.35;;;18.20;99.90;;;;;;5111902;28;20404;-74
2023/07/27 12:06:03;;;;;;;3.75;2.85;;;18.20;99.90;;;;;;5097744;28;20043;-74
2023/07/27 12:08:30;;;;;;;5.70;3.40;;;18.20;99.90;;;;;;5111665;28;20036;-73
2023/07/27 12:10:59;;;;;;;4.75;2.28;;;18.30;99.90;;;;;;5109099;28;20405;-74
2023/07/27 12:13:25;;;;;;;6.72;3.50;;;18.30;99.90;;;;;;5105639;28;20174;-73
2023/07/27 12:15:58;;;;;;;5.40;3.33;;;18.30;99.90;;;;;;5108828;28;20127;-73
2023/07/27 12:18:28;;;;;;;5.47;3.95;;;18.30;99.90;;;;;;5106889;28;20100;-72
2023/07/27 12:20:55;;;;;;;4.57;3.58;;;18.40;99.90;;;;;;5110671;28;20123;-73
2023/07/27 12:23:22;;;;;;;3.53;2.60;;;18.40;99.90;;;;;;5107484;28;20570;-73
2023/07/27 12:25:50;;;;;;;6.38;3.47;;;18.40;99.90;;;;;;5111004;28;20047;-74
2023/07/27 12:28:19;;;;;;;4.47;2.83;;;18.40;99.90;;;;;;5112232;28;20055;-73
2023/07/27 12:30:44;;;;;;;6.30;4.20;;;18.40;99.90;;;;;;5112338;28;20047;-74
2023/07/27 12:33:16;;;;;;;5.75;3.95;;;18.40;99.90;;;;;;5111705;28;20046;-74
2023/07/27 12:35:42;;;;;;;4.47;3.55;;;18.50;99.90;;;;;;5099875;28;20055;-74
2023/07/27 12:38:08;;;;;;;5.47;3.25;;;18.50;99.90;;;;;;5091759;28;20044;-74
2023/07/27 12:40:34;;;;;;;4.80;3.92;;;18.50;99.90;;;;;;5104530;28;20431;-74
2023/07/27 12:43:01;;;;;;;4.78;3.38;;;18.50;99.90;;;;;;5111653;28;20088;-74
2023/07/27 12:45:28;;;;;;;5.28;2.97;;;18.50;99.90;;;;;;5109878;28;20043;-74
2023/07/27 12:48:03;;;;;;;4.57;2.92;;;18.50;99.90;;;;;;5103314;28;20051;-74